S&P 500   5,123.41
DOW   37,983.24
QQQ   438.27
5 Semiconductor Giants: Navigating the Recent Pullback
2 Stocks to Buy on The Dip: One a Value, the Other High-Yielding
Breakout Alert: Coinbase's Consolidation Is About To End
3 Key Stocks Helping to Drive the EV Race
Closing prices for crude oil, gold and other commodities
You Can Follow BlackRock’s Market View for Your Money
JPMorgan Chase Falls 5% as Consumer Cracking Begins to Show
S&P 500   5,123.41
DOW   37,983.24
QQQ   438.27
5 Semiconductor Giants: Navigating the Recent Pullback
2 Stocks to Buy on The Dip: One a Value, the Other High-Yielding
Breakout Alert: Coinbase's Consolidation Is About To End
3 Key Stocks Helping to Drive the EV Race
Closing prices for crude oil, gold and other commodities
You Can Follow BlackRock’s Market View for Your Money
JPMorgan Chase Falls 5% as Consumer Cracking Begins to Show
S&P 500   5,123.41
DOW   37,983.24
QQQ   438.27
5 Semiconductor Giants: Navigating the Recent Pullback
2 Stocks to Buy on The Dip: One a Value, the Other High-Yielding
Breakout Alert: Coinbase's Consolidation Is About To End
3 Key Stocks Helping to Drive the EV Race
Closing prices for crude oil, gold and other commodities
You Can Follow BlackRock’s Market View for Your Money
JPMorgan Chase Falls 5% as Consumer Cracking Begins to Show
S&P 500   5,123.41
DOW   37,983.24
QQQ   438.27
5 Semiconductor Giants: Navigating the Recent Pullback
2 Stocks to Buy on The Dip: One a Value, the Other High-Yielding
Breakout Alert: Coinbase's Consolidation Is About To End
3 Key Stocks Helping to Drive the EV Race
Closing prices for crude oil, gold and other commodities
You Can Follow BlackRock’s Market View for Your Money
JPMorgan Chase Falls 5% as Consumer Cracking Begins to Show

Intellia Therapeutics (NTLA) Institutional Ownership

$24.27
-0.74 (-2.96%)
(As of 04/12/2024 ET)

Institutional Ownership Changes (13F Filings) for Intellia Therapeutics (NASDAQ:NTLA)

Current
Institutional Ownership
Percentage
88.77%
Number of
Institutional Buyers
(last 12 months)
176
Total
Institutional Inflows
(last 12 months)
$466.46M
Number of
Institutional Sellers
(last 12 months)
92
Total
Institutional Outflows
(last 12 months)
$271.31M
Get NTLA Insider Trade Alerts

Want to know when executives and insiders are buying or selling Intellia Therapeutics stock? Sign up for InsiderTrades.com's daily newsletter to get the latest insider transactions delivered to your inbox daily.

Skip Chart & View Institutional Buying and Selling Data

NTLA Institutional Buying and Selling by Quarter

Intellia Therapeutics Major Shareholders & Ownership History

Reporting DateMajor Shareholder NameShares HeldMarket Value% of PortfolioQuarterly Change in SharesOwnership in CompanyDetails
4/10/2024 Green Alpha Advisors LLC7,964$219K0.2%-21.2%0.008%
4/5/2024 Los Angeles Capital Management LLC17,449$480K0.0%+49.2%0.018%
3/22/2024PNC Financial Services Group Inc.10,561$322K0.0%+209.7%0.011%
3/21/2024Healthcare of Ontario Pension Plan Trust Fund298,000$9.09M0.0%N/A0.310%
3/11/2024Vanguard Group Inc.8,347,449$254.51M0.0%+1.9%8.685%
3/5/2024Wellington Management Group LLP2,456,917$74.91M0.0%-7.4%2.556%
3/1/2024Goldman Sachs Group Inc.824,527$25.14M0.0%+3.5%0.858%
2/17/2024FIL Ltd8,943$273K0.0%N/A0.010%
2/16/2024Price T Rowe Associates Inc. MD1,834,143$55.92M0.0%-10.5%2.048%
2/15/2024Virtus ETF Advisers LLC2,906$89K0.1%+32.6%0.003%
2/15/2024Horizon Kinetics Asset Management LLC14,396$439K0.0%-4.0%0.016%
2/15/2024Legal & General Group Plc80,743$2.46M0.0%+0.7%0.090%
2/15/2024Vanguard Group Inc.8,347,449$254.51M0.0%+1.9%9.321%
2/15/2024Voloridge Investment Management LLC33,256$1.01M0.0%N/A0.037%
2/15/2024Voya Investment Management LLC94,720$2.89M0.0%+67.5%0.106%
2/15/2024Vident Advisory LLC16,465$502K0.0%+4.4%0.018%
2/15/2024Nuveen Asset Management LLC475,748$14.51M0.0%-6.5%0.531%
2/15/2024Opaleye Management Inc.99,000$3.02M0.8%N/A0.111%
2/15/2024Orchard Capital Management LLC170,006$5.18M1.6%+6.8%0.190%
2/15/2024Price T Rowe Associates Inc. MD1,834,143$55.92M0.0%-10.5%2.048%
2/15/2024Profund Advisors LLC50,976$1.55M0.1%+26.0%0.057%
2/15/2024Fort Sheridan Advisors LLC7,677$234K0.0%+4.9%0.009%
2/15/2024Granahan Investment Management LLC257,791$7.86M0.3%+25.6%0.288%
2/15/2024Healthcare of Ontario Pension Plan Trust Fund298,000$9.09M0.0%N/A0.333%
2/15/2024Comerica Bank3,891$119K0.0%-63.2%0.004%
2/14/2024Royal Bank of Canada153,612$4.68M0.0%+83.8%0.172%
2/14/2024Pathstone Holdings LLC7,369$225K0.0%N/A0.008%
2/14/2024Creative Planning8,972$274K0.0%+4,073.0%0.010%
2/14/2024Cubist Systematic Strategies LLC19,042$581K0.0%-20.1%0.021%
2/14/2024Avidity Partners Management LP447,434$13.64M0.5%+18.0%0.500%
2/14/2024Cresset Asset Management LLC22,577$688K0.0%+11.5%0.025%
2/14/2024Sei Investments Co.6,975$213K0.0%-14.9%0.008%
2/14/2024Shell Asset Management Co.22,801$695K0.0%-6.6%0.025%
2/14/2024Seven Eight Capital LP61,192$1.87M0.2%+219.4%0.068%
2/14/2024Sectoral Asset Management Inc.9,300$284K0.1%-91.7%0.010%
2/14/2024Schroder Investment Management Group88,502$2.70M0.0%-31.8%0.099%
2/14/2024Himension Capital Singapore PTE. LTD.1,030,621$31.42M2.9%-10.0%1.151%
2/13/2024Envestnet Asset Management Inc.49,256$1.50M0.0%+34.0%0.055%
2/13/2024Northern Trust Corp886,388$27.03M0.0%-3.7%0.990%
2/13/2024Public Employees Retirement Association of Colorado9,760$298K0.0%-98.5%0.011%
My biggest AI fear (Ad)

These 10 stocks have the power to make you a millionaire as early as 2026… And all you need is $10K. Investing in each of the stocks in The AI Millionaire Blueprint could make a 9,900% return in as little as the next three years.

All the details are right here.
2/13/2024Goldman Sachs Group Inc.824,527$25.14M0.0%+3.5%0.921%
2/13/2024Rafferty Asset Management LLC328,998$10.03M0.0%+31.0%0.367%
2/13/2024NEOS Investment Management LLC30,713$936K0.1%N/A0.034%
2/13/2024The Manufacturers Life Insurance Company 63,231$1.93M0.0%-7.7%0.071%
2/13/2024KBC Group NV1,793$55K0.0%N/A0.002%
2/12/2024Eagle Asset Management Inc.269,558$8.22M0.0%+11.1%0.301%
2/12/2024Capstone Investment Advisors LLC59,380$1.81M0.0%+20.4%0.066%
2/12/2024Stifel Financial Corp68,523$2.09M0.0%+37.6%0.077%
2/12/2024TD Asset Management Inc30,692$936K0.0%-37.2%0.034%
2/12/2024Steward Partners Investment Advisory LLC2,004$61K0.0%-15.3%0.002%
2/12/2024Contrarius Investment Management Ltd214,401$6.54M0.4%-7.5%0.239%
2/9/2024US Bancorp DE8,876$271K0.0%+32.7%0.010%
2/9/2024Franklin Resources Inc.16,316$497K0.0%+17.0%0.018%
2/9/2024Quest Partners LLC10,416$318K0.1%N/A0.012%
2/9/2024Wells Fargo & Company MN202,594$6.18M0.0%-10.7%0.226%
2/9/2024UBS Group AG274,524$8.37M0.0%+121.4%0.307%
2/9/2024PNC Financial Services Group Inc.10,561$322K0.0%+209.7%0.012%
2/9/2024Norges Bank536,172$16.35M0.0%N/A0.599%
2/8/2024Nikko Asset Management Americas Inc.3,478,562$105.96M1.0%-1.2%3.884%
2/8/2024Vanguard Personalized Indexing Management LLC6,747$206K0.0%N/A0.008%
2/8/2024Mitsubishi UFJ Asset Management Co. Ltd.8,204$242K0.0%+23.3%0.009%
2/7/2024Principal Financial Group Inc.21,844$666K0.0%-8.9%0.024%
2/7/2024Dimensional Fund Advisors LP1,170,829$35.70M0.0%+5.5%1.307%
2/7/2024BNP Paribas Financial Markets210,161$6.41M0.0%+0.9%0.235%
2/7/2024Teacher Retirement System of Texas19,239$587K0.0%-14.6%0.021%
2/7/2024E Fund Management Co. Ltd.16,551$505K0.0%+37.1%0.018%
2/6/2024Charles Schwab Investment Management Inc.700,228$21.35M0.0%+2.8%0.782%
2/6/2024Spire Wealth Management3,889$119K0.0%+3,789.0%0.004%
2/6/2024Vestmark Advisory Solutions Inc.265,981$8.11M0.4%N/A0.297%
2/6/2024Axxcess Wealth Management LLC15,592$475K0.0%+4.0%0.017%
2/6/2024Amalgamated Bank8,577$262K0.0%-7.9%0.010%
2/6/2024 Los Angeles Capital Management LLC11,695$357K0.0%+3.7%0.013%
2/6/2024Swiss National Bank165,700$5.05M0.0%-5.0%0.185%
2/5/2024Victory Capital Management Inc.11,832$361K0.0%-56.7%0.013%
2/5/2024Merlin Capital Inc26,834$818K2.6%+44.8%0.030%
2/5/2024AtonRa Partners7,502$229K0.5%-10.4%0.008%
2/5/2024Intellectus Partners LLC55,650$1.70M0.5%+9.7%0.062%
2/5/2024Russell Investments Group Ltd.111,204$3.39M0.0%-12.6%0.124%
2/2/2024Bank Julius Baer & Co. Ltd Zurich1,907$58K0.0%-26.6%0.002%
2/2/2024State of New Jersey Common Pension Fund D81,382$2.48M0.0%+26.6%0.091%
2/1/2024New York State Common Retirement Fund54,492$1.66M0.0%+9.6%0.061%
2/1/2024Jennison Associates LLC23,848$727K0.0%+26.2%0.027%
2/1/2024Handelsbanken Fonder AB19,000$579K0.0%+39.7%0.021%
2/1/2024Signaturefd LLC1,592$49K0.0%+89.3%0.002%
1/31/2024abrdn plc154,269$4.70M0.0%N/A0.172%
1/31/2024Resonant Capital Advisors LLC41,348$1.26M0.1%+32.2%0.046%
1/31/2024Federated Hermes Inc.2,016,300$61.48M0.2%+13.8%2.251%
1/31/2024Daiwa Securities Group Inc.3,056$93K0.0%+35.0%0.003%
1/30/2024Zurcher Kantonalbank Zurich Cantonalbank 23,385$713K0.0%+2.8%0.026%
1/30/2024Strs Ohio1,000$30K0.0%-85.5%0.001%
Elon Musk Secret Crypto Plot Exposed (Ad)

Reports of a leaked meeting between Elon Musk and staff at X.com could send shockwaves through the crypto market. Musk revealed a "mind-blowing" plan to take over the global payment system. In his own words, the world's richest man said "you won't need a bank account." Prominent voices in crypto believe what comes next will mirror a crypto mass adoption similar to the one that triggered bitcoin's last bull run.

Click here now to get your copy.
1/30/2024Sumitomo Mitsui Trust Holdings Inc.3,478,562$106.06M0.1%-1.2%3.884%
1/29/2024Capital Advisors Inc. OK284,738$8.68M0.2%+34.7%0.318%
1/26/2024Krilogy Financial LLC22,504$686K0.1%N/A0.025%
1/25/2024Allspring Global Investments Holdings LLC8,144$248K0.0%+7.7%0.009%
1/25/2024Regents of The University of California117,315$3.58M0.4%+5.3%0.131%
1/25/2024International Assets Investment Management LLC21,800$715K0.0%N/A0.024%
1/24/2024Mirae Asset Global Investments Co. Ltd.185,858$5.67M0.0%-35.2%0.208%
1/24/2024DekaBank Deutsche Girozentrale78,129$2.50M0.0%+47.1%0.087%
1/24/2024International Assets Investment Management LLC21,800$715K0.0%N/A0.024%
1/24/2024Chevy Chase Trust Holdings LLC991,175$30.22M0.1%-1.2%1.107%
(Data available from 1/1/2016 forward)

NTLA Institutional Ownership - Frequently Asked Questions

Who are the largest shareholders of NTLA shares?

During the previous two years, 320 institutional investors and hedge funds held shares of Intellia Therapeutics. The most heavily invested institutionals were ARK Investment Management LLC ($347.97M), BlackRock Inc. ($328.48M), Vanguard Group Inc. ($254.51M), Viking Global Investors LP ($179.41M), State Street Corp ($142.44M), Sumitomo Mitsui Trust Holdings Inc. ($106.06M), and Nikko Asset Management Americas Inc. ($105.96M).Learn more on NTLA's institutional investors.

What percentage of Intellia Therapeutics stock is owned by institutional investors?

88.77% of Intellia Therapeutics stock is owned by institutional investors. Learn more on NTLA's institutional investor holdings.

Which institutional investors have been buying Intellia Therapeutics stock?

Of the 291 institutional investors that purchased Intellia Therapeutics stock in the last 24 months, the following investors and hedge funds have bought the highest volume of shares: ARK Investment Management LLC ($4.04M), Norges Bank ($1.39M), State Street Corp ($1.30M), Morgan Stanley ($1.23M), Federated Hermes Inc. ($1.21M), Wellington Management Group LLP ($1.18M), and Bank of America Corp DE ($1.09M).

How much institutional buying is happening at Intellia Therapeutics?

Institutional investors have bought a total of 30,639,351 shares in the last 24 months. This purchase volume represents approximately $1.38B in transactions.

Which Intellia Therapeutics major shareholders have been selling company stock?

Of the 165 institutional investors that sold Intellia Therapeutics stock in the last 24 months, the following investors and hedge funds have sold the highest volume of shares: FMR LLC ($1.23M), Nuveen Asset Management LLC ($1.18M), Price T Rowe Associates Inc. MD ($972.36K), Jennison Associates LLC ($725.36K), State Street Corp ($718.05K), Public Employees Retirement Association of Colorado ($629.36K), and Victory Capital Management Inc. ($618.30K).

How much institutional selling is happening at Intellia Therapeutics?

Institutional investors have sold a total of 15,391,174 shares in the last 24 months. This volume of shares sold represents approximately $714.47M in transactions.


This page (NASDAQ:NTLA) was last updated on 4/13/2024 by MarketBeat.com Staff

From Our Partners